sensor_id;sensor_type;location;lat;lon;timestamp;temperature;humidity
48998;DHT22;34807;51.456;7.244;2023-11-19T00:00:19;9.00;99.90
48998;DHT22;34807;51.456;7.244;2023-11-19T00:02:44;9.00;99.90
48998;DHT22;34807;51.456;7.244;2023-11-19T00:05:10;9.00;99.90
48998;DHT22;34807;51.456;7.244;2023-11-19T00:07:39;9.00;99.90
48998;DHT22;34807;51.456;7.244;2023-11-19T00:10:08;9.00;99.90
48998;DHT22;34807;51.456;7.244;2023-11-19T00:12:35;9.10;99.90
48998;DHT22;34807;51.456;7.244;2023-11-19T00:15:01;9.10;99.90
48998;DHT22;34807;51.456;7.244;2023-11-19T00:17:26;9.10;99.90
48998;DHT22;34807;51.456;7.244;2023-11-19T00:19:52;9.20;99.90
48998;DHT22;34807;51.456;7.244;2023-11-19T00:22:18;9.10;99.90
48998;DHT22;34807;51.456;7.244;2023-11-19T00:24:43;9.20;99.90
48998;DHT22;34807;51.456;7.244;2023-11-19T00:27:10;9.20;99.90
48998;DHT22;34807;51.456;7.244;2023-11-19T00:29:35;9.20;99.90
48998;DHT22;34807;51.456;7.244;2023-11-19T00:32:01;9.20;99.90
48998;DHT22;34807;51.456;7.244;2023-11-19T00:34:27;9.20;99.90
48998;DHT22;34807;51.456;7.244;2023-11-19T00:36:52;9.20;99.90
48998;DHT22;34807;51.456;7.244;2023-11-19T00:39:18;9.30;99.90
48998;DHT22;34807;51.456;7.244;2023-11-19T00:41:45;9.30;99.90
48998;DHT22;34807;51.456;7.244;2023-11-19T00:44:11;9.30;99.90
48998;DHT22;34807;51.456;7.244;2023-11-19T00:46:37;9.30;99.90
48998;DHT22;34807;51.456;7.244;2023-11-19T00:49:02;9.30;99.90
48998;DHT22;34807;51.456;7.244;2023-11-19T00:51:28;9.30;99.90
48998;DHT22;34807;51.456;7.244;2023-11-19T00:53:53;9.30;99.90
48998;DHT22;34807;51.456;7.244;2023-11-19T00:56:19;9.40;99.90
48998;DHT22;34807;51.456;7.244;2023-11-19T00:58:45;9.40;99.90
48998;DHT22;34807;51.456;7.244;2023-11-19T01:01:13;9.40;99.90
48998;DHT22;34807;51.456;7.244;2023-11-19T01:03:39;9.40;99.90
48998;DHT22;34807;51.456;7.244;2023-11-19T01:06:04;9.40;99.90
48998;DHT22;34807;51.456;7.244;2023-11-19T01:08:30;9.50;99.90
48998;DHT22;34807;51.456;7.244;2023-11-19T01:10:56;9.50;99.90
48998;DHT22;34807;51.456;7.244;2023-11-19T01:13:21;9.50;99.90
48998;DHT22;34807;51.456;7.244;2023-11-19T01:15:46;9.50;99.90
48998;DHT22;34807;51.456;7.244;2023-11-19T01:18:13;9.50;99.90
48998;DHT22;34807;51.456;7.244;2023-11-19T01:20:38;9.60;99.90
48998;DHT22;34807;51.456;7.244;2023-11-19T01:23:04;9.60;99.90
48998;DHT22;34807;51.456;7.244;2023-11-19T01:25:29;9.60;99.90
48998;DHT22;34807;51.456;7.244;2023-11-19T01:27:55;9.60;99.90
48998;DHT22;34807;51.456;7.244;2023-11-19T01:30:24;9.60;99.90
48998;DHT22;34807;51.456;7.244;2023-11-19T01:32:49;9.60;99.90
48998;DHT22;34807;51.456;7.244;2023-11-19T01:35:15;9.70;99.90
48998;DHT22;34807;51.456;7.244;2023-11-19T01:37:40;9.70;99.90
48998;DHT22;34807;51.456;7.244;2023-11-19T01:40:06;9.70;99.90
48998;DHT22;34807;51.456;7.244;2023-11-19T01:42:37;9.70;99.90
48998;DHT22;34807;51.456;7.244;2023-11-19T01:45:03;9.70;99.90
48998;DHT22;34807;51.456;7.244;2023-11-19T01:47:31;9.70;99.90
48998;DHT22;34807;51.456;7.244;2023-11-19T01:49:57;9.80;99.90
48998;DHT22;34807;51.456;7.244;2023-11-19T01:52:24;9.80;99.90
48998;DHT22;34807;51.456;7.244;2023-11-19T01:54:50;9.80;99.90
48998;DHT22;34807;51.456;7.244;2023-11-19T01:57:16;9.80;99.90
48998;DHT22;34807;51.456;7.244;2023-11-19T01:59:42;9.80;99.90
48998;DHT22;34807;51.456;7.244;2023-11-19T02:02:08;9.80;99.90
48998;DHT22;34807;51.456;7.244;2023-11-19T02:04:34;9.90;99.90
48998;DHT22;34807;51.456;7.244;2023-11-19T02:07:00;9.80;99.90
48998;DHT22;34807;51.456;7.244;2023-11-19T02:09:25;9.90;99.90
48998;DHT22;34807;51.456;7.244;2023-11-19T02:11:52;9.90;99.90
48998;DHT22;34807;51.456;7.244;2023-11-19T02:14:19;9.90;99.90
48998;DHT22;34807;51.456;7.244;2023-11-19T02:16:49;9.90;99.90
48998;DHT22;34807;51.456;7.244;2023-11-19T02:19:14;9.90;99.90
48998;DHT22;34807;51.456;7.244;2023-11-19T02:21:40;10.00;99.90
48998;DHT22;34807;51.456;7.244;2023-11-19T02:24:07;10.00;99.90
48998;DHT22;34807;51.456;7.244;2023-11-19T02:26:39;10.00;99.90
48998;DHT22;34807;51.456;7.244;2023-11-19T02:29:05;10.00;99.90
48998;DHT22;34807;51.456;7.244;2023-11-19T02:31:32;10.00;99.90
48998;DHT22;34807;51.456;7.244;2023-11-19T02:33:57;10.00;99.90
48998;DHT22;34807;51.456;7.244;2023-11-19T02:36:25;10.00;99.90
48998;DHT22;34807;51.456;7.244;2023-11-19T02:38:50;10.00;99.90
48998;DHT22;34807;51.456;7.244;2023-11-19T02:41:16;10.10;99.90
48998;DHT22;34807;51.456;7.244;2023-11-19T02:43:42;10.10;99.90
48998;DHT22;34807;51.456;7.244;2023-11-19T02:46:07;10.00;99.90
48998;DHT22;34807;51.456;7.244;2023-11-19T02:48:33;10.10;99.90
48998;DHT22;34807;51.456;7.244;2023-11-19T02:51:01;10.10;99.90
48998;DHT22;34807;51.456;7.244;2023-11-19T02:53:31;10.10;99.90
48998;DHT22;34807;51.456;7.244;2023-11-19T02:55:57;10.10;99.90
48998;DHT22;34807;51.456;7.244;2023-11-19T02:58:37;10.10;99.90
48998;DHT22;34807;51.456;7.244;2023-11-19T03:01:02;10.20;99.90
48998;DHT22;34807;51.456;7.244;2023-11-19T03:03:38;10.20;99.90
48998;DHT22;34807;51.456;7.244;2023-11-19T03:06:06;10.10;99.90
48998;DHT22;34807;51.456;7.244;2023-11-19T03:08:32;10.20;99.90
48998;DHT22;34807;51.456;7.244;2023-11-19T03:10:58;10.20;99.90
48998;DHT22;34807;51.456;7.244;2023-11-19T03:13:24;10.20;99.90
48998;DHT22;34807;51.456;7.244;2023-11-19T03:15:49;10.20;99.90
48998;DHT22;34807;51.456;7.244;2023-11-19T03:18:15;10.20;99.90
48998;DHT22;34807;51.456;7.244;2023-11-19T03:20:40;10.20;99.90
48998;DHT22;34807;51.456;7.244;2023-11-19T03:23:06;10.30;99.90
48998;DHT22;34807;51.456;7.244;2023-11-19T03:25:32;10.30;99.90
48998;DHT22;34807;51.456;7.244;2023-11-19T03:28:02;10.30;99.90
48998;DHT22;34807;51.456;7.244;2023-11-19T03:30:28;10.30;99.90
48998;DHT22;34807;51.456;7.244;2023-11-19T03:32:57;10.30;99.90
48998;DHT22;34807;51.456;7.244;2023-11-19T03:35:23;10.30;99.90
48998;DHT22;34807;51.456;7.244;2023-11-19T03:37:49;10.30;99.90
48998;DHT22;34807;51.456;7.244;2023-11-19T03:40:14;10.30;99.90
48998;DHT22;34807;51.456;7.244;2023-11-19T03:42:40;10.40;99.90
48998;DHT22;34807;51.456;7.244;2023-11-19T03:45:06;10.40;99.90
48998;DHT22;34807;51.456;7.244;2023-11-19T03:47:34;10.40;99.90
48998;DHT22;34807;51.456;7.244;2023-11-19T03:49:59;10.40;99.90
48998;DHT22;34807;51.456;7.244;2023-11-19T03:52:25;10.40;99.90
48998;DHT22;34807;51.456;7.244;2023-11-19T03:54:52;10.40;99.90
48998;DHT22;34807;51.456;7.244;2023-11-19T03:57:18;10.40;99.90
48998;DHT22;34807;51.456;7.244;2023-11-19T03:59:43;10.40;99.90
48998;DHT22;34807;51.456;7.244;2023-11-19T04:02:09;10.40;99.90
48998;DHT22;34807;51.456;7.244;2023-11-19T04:04:35;10.40;99.90
48998;DHT22;34807;51.456;7.244;2023-11-19T04:07:01;10.40;99.90
48998;DHT22;34807;51.456;7.244;2023-11-19T04:09:28;10.40;99.90
48998;DHT22;34807;51.456;7.244;2023-11-19T04:11:54;10.40;99.90
48998;DHT22;34807;51.456;7.244;2023-11-19T04:14:19;10.30;99.90
48998;DHT22;34807;51.456;7.244;2023-11-19T04:16:45;10.30;99.90
48998;DHT22;34807;51.456;7.244;2023-11-19T04:19:11;10.30;99.90
48998;DHT22;34807;51.456;7.244;2023-11-19T04:21:36;10.30;99.90
48998;DHT22;34807;51.456;7.244;2023-11-19T04:24:02;10.30;99.90
48998;DHT22;34807;51.456;7.244;2023-11-19T04:26:27;10.30;99.90
48998;DHT22;34807;51.456;7.244;2023-11-19T04:28:53;10.30;99.90
48998;DHT22;34807;51.456;7.244;2023-11-19T04:31:18;10.30;99.90
48998;DHT22;34807;51.456;7.244;2023-11-19T04:33:44;10.30;99.90
48998;DHT22;34807;51.456;7.244;2023-11-19T04:36:10;10.30;99.90
48998;DHT22;34807;51.456;7.244;2023-11-19T04:38:35;10.30;99.90
48998;DHT22;34807;51.456;7.244;2023-11-19T04:41:01;10.20;99.90
48998;DHT22;34807;51.456;7.244;2023-11-19T04:43:26;10.30;99.90
48998;DHT22;34807;51.456;7.244;2023-11-19T04:45:52;10.30;99.90
48998;DHT22;34807;51.456;7.244;2023-11-19T04:48:17;10.30;99.90
48998;DHT22;34807;51.456;7.244;2023-11-19T04:50:43;10.20;99.90
48998;DHT22;34807;51.456;7.244;2023-11-19T04:53:08;10.30;99.90
48998;DHT22;34807;51.456;7.244;2023-11-19T04:55:34;10.30;99.90
48998;DHT22;34807;51.456;7.244;2023-11-19T04:57:59;10.20;99.90
48998;DHT22;34807;51.456;7.244;2023-11-19T05:00:25;10.20;99.90
48998;DHT22;34807;51.456;7.244;2023-11-19T05:02:51;10.20;99.90
48998;DHT22;34807;51.456;7.244;2023-11-19T05:05:16;10.20;99.90
48998;DHT22;34807;51.456;7.244;2023-11-19T05:07:42;10.20;99.90
48998;DHT22;34807;51.456;7.244;2023-11-19T05:10:08;10.30;99.90
48998;DHT22;34807;51.456;7.244;2023-11-19T05:12:34;10.20;99.90
48998;DHT22;34807;51.456;7.244;2023-11-19T05:14:59;10.30;99.90
48998;DHT22;34807;51.456;7.244;2023-11-19T05:17:25;10.20;99.90
48998;DHT22;34807;51.456;7.244;2023-11-19T05:19:51;10.30;99.90
48998;DHT22;34807;51.456;7.244;2023-11-19T05:22:16;10.20;99.90
48998;DHT22;34807;51.456;7.244;2023-11-19T05:24:42;10.30;99.90
48998;DHT22;34807;51.456;7.244;2023-11-19T05:27:07;10.30;99.90
48998;DHT22;34807;51.456;7.244;2023-11-19T05:29:33;10.30;99.90
48998;DHT22;34807;51.456;7.244;2023-11-19T05:32:00;10.30;99.90
48998;DHT22;34807;51.456;7.244;2023-11-19T05:34:27;10.30;99.90
48998;DHT22;34807;51.456;7.244;2023-11-19T05:36:52;10.30;99.90
48998;DHT22;34807;51.456;7.244;2023-11-19T05:39:18;10.30;99.90
48998;DHT22;34807;51.456;7.244;2023-11-19T05:41:47;10.30;99.90
48998;DHT22;34807;51.456;7.244;2023-11-19T05:44:12;10.30;99.90
48998;DHT22;34807;51.456;7.244;2023-11-19T05:46:38;10.30;99.90
48998;DHT22;34807;51.456;7.244;2023-11-19T05:49:07;10.30;99.90
48998;DHT22;34807;51.456;7.244;2023-11-19T05:51:36;10.30;99.90
48998;DHT22;34807;51.456;7.244;2023-11-19T05:54:01;10.30;99.90
48998;DHT22;34807;51.456;7.244;2023-11-19T05:56:27;10.30;99.90
48998;DHT22;34807;51.456;7.244;2023-11-19T05:58:57;10.30;99.90
48998;DHT22;34807;51.456;7.244;2023-11-19T06:01:23;10.30;99.90
48998;DHT22;34807;51.456;7.244;2023-11-19T06:03:48;10.30;99.90
48998;DHT22;34807;51.456;7.244;2023-11-19T06:06:15;10.30;99.90
48998;DHT22;34807;51.456;7.244;2023-11-19T06:08:40;10.30;99.90
48998;DHT22;34807;51.456;7.244;2023-11-19T06:11:07;10.30;99.90
48998;DHT22;34807;51.456;7.244;2023-11-19T06:13:32;10.30;99.90
48998;DHT22;34807;51.456;7.244;2023-11-19T06:15:58;10.30;99.90
48998;DHT22;34807;51.456;7.244;2023-11-19T06:18:23;10.30;99.90
48998;DHT22;34807;51.456;7.244;2023-11-19T06:20:49;10.30;99.90
48998;DHT22;34807;51.456;7.244;2023-11-19T06:23:15;10.30;99.90
48998;DHT22;34807;51.456;7.244;2023-11-19T06:25:40;10.30;99.90
48998;DHT22;34807;51.456;7.244;2023-11-19T06:28:06;10.40;99.90
48998;DHT22;34807;51.456;7.244;2023-11-19T06:30:31;10.30;99.90
48998;DHT22;34807;51.456;7.244;2023-11-19T06:32:58;10.30;99.90
48998;DHT22;34807;51.456;7.244;2023-11-19T06:35:23;10.30;99.90
48998;DHT22;34807;51.456;7.244;2023-11-19T06:37:49;10.30;99.90
48998;DHT22;34807;51.456;7.244;2023-11-19T06:40:14;10.30;99.90
48998;DHT22;34807;51.456;7.244;2023-11-19T06:42:41;10.30;99.90
48998;DHT22;34807;51.456;7.244;2023-11-19T06:45:06;10.30;99.90
48998;DHT22;34807;51.456;7.244;2023-11-19T06:47:32;10.30;99.90
48998;DHT22;34807;51.456;7.244;2023-11-19T06:49:58;10.30;99.90
48998;DHT22;34807;51.456;7.244;2023-11-19T06:52:23;10.30;99.90
48998;DHT22;34807;51.456;7.244;2023-11-19T06:54:49;10.30;99.90
48998;DHT22;34807;51.456;7.244;2023-11-19T06:57:15;10.30;99.90
48998;DHT22;34807;51.456;7.244;2023-11-19T06:59:40;10.30;99.90
48998;DHT22;34807;51.456;7.244;2023-11-19T07:02:06;10.30;99.90
48998;DHT22;34807;51.456;7.244;2023-11-19T07:04:31;10.30;99.90
48998;DHT22;34807;51.456;7.244;2023-11-19T07:06:58;10.30;99.90
48998;DHT22;34807;51.456;7.244;2023-11-19T07:09:25;10.30;99.90
48998;DHT22;34807;51.456;7.244;2023-11-19T07:11:50;10.30;99.90
48998;DHT22;34807;51.456;7.244;2023-11-19T07:14:17;10.30;99.90
48998;DHT22;34807;51.456;7.244;2023-11-19T07:16:43;10.30;99.90
48998;DHT22;34807;51.456;7.244;2023-11-19T07:19:09;10.30;99.90
48998;DHT22;34807;51.456;7.244;2023-11-19T07:21:34;10.30;99.90
48998;DHT22;34807;51.456;7.244;2023-11-19T07:24:00;10.30;99.90
48998;DHT22;34807;51.456;7.244;2023-11-19T07:26:26;10.30;99.90
48998;DHT22;34807;51.456;7.244;2023-11-19T07:28:52;10.30;99.90
48998;DHT22;34807;51.456;7.244;2023-11-19T07:31:17;10.30;99.90
48998;DHT22;34807;51.456;7.244;2023-11-19T07:33:47;10.30;99.90
48998;DHT22;34807;51.456;7.244;2023-11-19T07:36:13;10.30;99.90
48998;DHT22;34807;51.456;7.244;2023-11-19T07:38:38;10.20;99.90
48998;DHT22;34807;51.456;7.244;2023-11-19T07:41:07;10.20;99.90
48998;DHT22;34807;51.456;7.244;2023-11-19T07:43:35;10.20;99.90
48998;DHT22;34807;51.456;7.244;2023-11-19T07:46:01;10.20;99.90
48998;DHT22;34807;51.456;7.244;2023-11-19T07:48:27;10.20;99.90
48998;DHT22;34807;51.456;7.244;2023-11-19T07:50:52;10.20;99.90
48998;DHT22;34807;51.456;7.244;2023-11-19T07:53:18;10.20;99.90
48998;DHT22;34807;51.456;7.244;2023-11-19T07:55:44;10.20;99.90
48998;DHT22;34807;51.456;7.244;2023-11-19T07:58:10;10.20;99.90
48998;DHT22;34807;51.456;7.244;2023-11-19T08:00:36;10.20;99.90
48998;DHT22;34807;51.456;7.244;2023-11-19T08:03:02;10.20;99.90
48998;DHT22;34807;51.456;7.244;2023-11-19T08:05:28;10.20;99.90
48998;DHT22;34807;51.456;7.244;2023-11-19T08:07:54;10.20;99.90
48998;DHT22;34807;51.456;7.244;2023-11-19T08:10:19;10.20;99.90
48998;DHT22;34807;51.456;7.244;2023-11-19T08:12:45;10.20;99.90
48998;DHT22;34807;51.456;7.244;2023-11-19T08:15:10;10.20;99.90
48998;DHT22;34807;51.456;7.244;2023-11-19T08:17:36;10.20;99.90
48998;DHT22;34807;51.456;7.244;2023-11-19T08:20:02;10.20;99.90
48998;DHT22;34807;51.456;7.244;2023-11-19T08:22:28;10.20;99.90
48998;DHT22;34807;51.456;7.244;2023-11-19T08:24:53;10.20;99.90
48998;DHT22;34807;51.456;7.244;2023-11-19T08:27:19;10.20;99.90
48998;DHT22;34807;51.456;7.244;2023-11-19T08:29:54;10.30;99.90
48998;DHT22;34807;51.456;7.244;2023-11-19T08:32:23;10.30;99.90
48998;DHT22;34807;51.456;7.244;2023-11-19T08:34:49;10.30;99.90
48998;DHT22;34807;51.456;7.244;2023-11-19T08:37:14;10.30;99.90
48998;DHT22;34807;51.456;7.244;2023-11-19T08:39:40;10.30;99.90
48998;DHT22;34807;51.456;7.244;2023-11-19T08:42:07;10.30;99.90
48998;DHT22;34807;51.456;7.244;2023-11-19T08:44:32;10.30;99.90
48998;DHT22;34807;51.456;7.244;2023-11-19T08:46:58;10.30;99.90
48998;DHT22;34807;51.456;7.244;2023-11-19T08:49:23;10.40;99.90
48998;DHT22;34807;51.456;7.244;2023-11-19T08:51:49;10.40;99.90
48998;DHT22;34807;51.456;7.244;2023-11-19T08:54:14;10.40;99.90
48998;DHT22;34807;51.456;7.244;2023-11-19T08:56:40;10.50;99.90
48998;DHT22;34807;51.456;7.244;2023-11-19T08:59:05;10.50;99.90
48998;DHT22;34807;51.456;7.244;2023-11-19T09:01:31;10.50;99.90
48998;DHT22;34807;51.456;7.244;2023-11-19T09:03:56;10.50;99.90
48998;DHT22;34807;51.456;7.244;2023-11-19T09:06:22;10.50;99.90
48998;DHT22;34807;51.456;7.244;2023-11-19T09:08:48;10.50;99.90
48998;DHT22;34807;51.456;7.244;2023-11-19T09:11:13;10.60;99.90
48998;DHT22;34807;51.456;7.244;2023-11-19T09:13:39;10.60;99.90
48998;DHT22;34807;51.456;7.244;2023-11-19T09:16:05;10.60;99.90
48998;DHT22;34807;51.456;7.244;2023-11-19T09:18:30;10.60;99.90
48998;DHT22;34807;51.456;7.244;2023-11-19T09:20:57;10.60;99.90
48998;DHT22;34807;51.456;7.244;2023-11-19T09:23:23;10.60;99.90
48998;DHT22;34807;51.456;7.244;2023-11-19T09:25:50;10.60;99.90
48998;DHT22;34807;51.456;7.244;2023-11-19T09:28:16;10.60;99.90
48998;DHT22;34807;51.456;7.244;2023-11-19T09:30:41;10.60;99.90
48998;DHT22;34807;51.456;7.244;2023-11-19T09:33:06;10.60;99.90
48998;DHT22;34807;51.456;7.244;2023-11-19T09:35:32;10.70;99.90
48998;DHT22;34807;51.456;7.244;2023-11-19T09:37:58;10.70;99.90
48998;DHT22;34807;51.456;7.244;2023-11-19T09:40:24;10.70;99.90
48998;DHT22;34807;51.456;7.244;2023-11-19T09:42:50;10.70;99.90
48998;DHT22;34807;51.456;7.244;2023-11-19T09:45:16;10.80;99.90
48998;DHT22;34807;51.456;7.244;2023-11-19T09:47:45;10.80;99.90
48998;DHT22;34807;51.456;7.244;2023-11-19T09:50:15;10.80;99.90
48998;DHT22;34807;51.456;7.244;2023-11-19T09:52:41;10.80;99.90
48998;DHT22;34807;51.456;7.244;2023-11-19T09:55:06;10.90;99.90
48998;DHT22;34807;51.456;7.244;2023-11-19T09:57:32;10.90;99.90
48998;DHT22;34807;51.456;7.244;2023-11-19T10:00:00;11.00;99.90
48998;DHT22;34807;51.456;7.244;2023-11-19T10:02:26;11.00;99.90
48998;DHT22;34807;51.456;7.244;2023-11-19T10:04:52;11.00;99.90
48998;DHT22;34807;51.456;7.244;2023-11-19T10:07:19;11.00;99.90
48998;DHT22;34807;51.456;7.244;2023-11-19T10:09:45;11.00;99.90
48998;DHT22;34807;51.456;7.244;2023-11-19T10:12:12;11.00;99.90
48998;DHT22;34807;51.456;7.244;2023-11-19T10:14:37;11.00;99.90
48998;DHT22;34807;51.456;7.244;2023-11-19T10:17:06;11.10;99.90
48998;DHT22;34807;51.456;7.244;2023-11-19T10:19:32;11.10;99.90
48998;DHT22;34807;51.456;7.244;2023-11-19T10:22:01;11.10;99.90
48998;DHT22;34807;51.456;7.244;2023-11-19T10:24:34;11.10;99.90
48998;DHT22;34807;51.456;7.244;2023-11-19T10:27:00;11.10;99.90
48998;DHT22;34807;51.456;7.244;2023-11-19T10:29:26;11.20;99.90
48998;DHT22;34807;51.456;7.244;2023-11-19T10:31:57;11.10;99.90
48998;DHT22;34807;51.456;7.244;2023-11-19T10:34:24;11.10;99.90
48998;DHT22;34807;51.456;7.244;2023-11-19T10:36:50;11.10;99.90
48998;DHT22;34807;51.456;7.244;2023-11-19T10:39:15;11.20;99.90
48998;DHT22;34807;51.456;7.244;2023-11-19T10:41:41;11.20;99.90
48998;DHT22;34807;51.456;7.244;2023-11-19T10:44:07;11.20;99.90
48998;DHT22;34807;51.456;7.244;2023-11-19T10:46:37;11.20;99.90
48998;DHT22;34807;51.456;7.244;2023-11-19T10:49:04;11.10;99.90
48998;DHT22;34807;51.456;7.244;2023-11-19T10:51:30;11.20;99.90
48998;DHT22;34807;51.456;7.244;2023-11-19T10:53:57;11.20;99.90
48998;DHT22;34807;51.456;7.244;2023-11-19T10:56:25;11.20;99.90
48998;DHT22;34807;51.456;7.244;2023-11-19T10:58:53;11.30;99.90
48998;DHT22;34807;51.456;7.244;2023-11-19T11:01:20;11.30;99.90
48998;DHT22;34807;51.456;7.244;2023-11-19T11:03:49;11.30;99.90
48998;DHT22;34807;51.456;7.244;2023-11-19T11:06:16;11.30;99.90
48998;DHT22;34807;51.456;7.244;2023-11-19T11:08:42;11.30;99.90
48998;DHT22;34807;51.456;7.244;2023-11-19T11:11:08;11.30;99.90
48998;DHT22;34807;51.456;7.244;2023-11-19T11:13:35;11.30;99.90
48998;DHT22;34807;51.456;7.244;2023-11-19T11:16:02;11.30;99.90
48998;DHT22;34807;51.456;7.244;2023-11-19T11:18:29;11.30;99.90
48998;DHT22;34807;51.456;7.244;2023-11-19T11:21:28;11.30;99.90
48998;DHT22;34807;51.456;7.244;2023-11-19T11:35:08;11.40;99.90
48998;DHT22;34807;51.456;7.244;2023-11-19T11:39:34;11.40;99.90
48998;DHT22;34807;51.456;7.244;2023-11-19T11:44:59;11.40;99.90
48998;DHT22;34807;51.456;7.244;2023-11-19T11:47:25;11.40;99.90
48998;DHT22;34807;51.456;7.244;2023-11-19T11:49:51;11.50;99.90
48998;DHT22;34807;51.456;7.244;2023-11-19T11:52:17;11.50;99.90
48998;DHT22;34807;51.456;7.244;2023-11-19T11:54:43;11.60;99.90
48998;DHT22;34807;51.456;7.244;2023-11-19T11:57:10;11.60;99.90
48998;DHT22;34807;51.456;7.244;2023-11-19T11:59:37;11.60;99.90
48998;DHT22;34807;51.456;7.244;2023-11-19T12:02:03;11.70;99.90
48998;DHT22;34807;51.456;7.244;2023-11-19T12:04:29;11.60;99.90
48998;DHT22;34807;51.456;7.244;2023-11-19T12:07:37;11.70;99.90
48998;DHT22;34807;51.456;7.244;2023-11-19T12:09:47;11.70;99.90
48998;DHT22;34807;51.456;7.244;2023-11-19T12:19:59;11.70;99.90
48998;DHT22;34807;51.456;7.244;2023-11-19T12:22:24;11.70;99.90
48998;DHT22;34807;51.456;7.244;2023-11-19T12:24:50;11.70;99.90
48998;DHT22;34807;51.456;7.244;2023-11-19T12:27:17;11.70;99.90
48998;DHT22;34807;51.456;7.244;2023-11-19T12:29:43;11.70;99.90
48998;DHT22;34807;51.456;7.244;2023-11-19T12:32:11;11.80;99.90
48998;DHT22;34807;51.456;7.244;2023-11-19T12:34:37;11.80;99.90
48998;DHT22;34807;51.456;7.244;2023-11-19T12:37:03;11.70;99.90
48998;DHT22;34807;51.456;7.244;2023-11-19T12:39:29;11.80;99.90
48998;DHT22;34807;51.456;7.244;2023-11-19T12:41:55;11.80;99.90
48998;DHT22;34807;51.456;7.244;2023-11-19T12:44:21;11.80;99.90
48998;DHT22;34807;51.456;7.244;2023-11-19T12:46:46;11.80;99.90
48998;DHT22;34807;51.456;7.244;2023-11-19T12:49:12;11.80;99.90
48998;DHT22;34807;51.456;7.244;2023-11-19T12:51:37;11.80;99.90
48998;DHT22;34807;51.456;7.244;2023-11-19T12:54:03;11.80;99.90
48998;DHT22;34807;51.456;7.244;2023-11-19T12:56:30;11.80;99.90
48998;DHT22;34807;51.456;7.244;2023-11-19T12:58:55;11.80;99.90
48998;DHT22;34807;51.456;7.244;2023-11-19T13:01:21;11.80;99.90
48998;DHT22;34807;51.456;7.244;2023-11-19T13:03:47;11.70;99.90
48998;DHT22;34807;51.456;7.244;2023-11-19T13:06:14;11.70;99.90
48998;DHT22;34807;51.456;7.244;2023-11-19T13:08:41;11.70;99.90
48998;DHT22;34807;51.456;7.244;2023-11-19T13:11:08;11.70;99.90
48998;DHT22;34807;51.456;7.244;2023-11-19T13:16:39;11.70;99.90
48998;DHT22;34807;51.456;7.244;2023-11-19T13:19:04;11.60;99.90
48998;DHT22;34807;51.456;7.244;2023-11-19T13:21:30;11.60;99.90
48998;DHT22;34807;51.456;7.244;2023-11-19T13:23:56;11.60;99.90
48998;DHT22;34807;51.456;7.244;2023-11-19T13:26:21;11.60;99.90
48998;DHT22;34807;51.456;7.244;2023-11-19T13:28:47;11.60;99.90
48998;DHT22;34807;51.456;7.244;2023-11-19T13:31:13;11.60;99.90
48998;DHT22;34807;51.456;7.244;2023-11-19T13:33:39;11.60;99.90
48998;DHT22;34807;51.456;7.244;2023-11-19T13:36:05;11.60;99.90
48998;DHT22;34807;51.456;7.244;2023-11-19T13:38:33;11.60;99.90
48998;DHT22;34807;51.456;7.244;2023-11-19T13:40:58;11.60;99.90
48998;DHT22;34807;51.456;7.244;2023-11-19T13:43:24;11.60;99.90
48998;DHT22;34807;51.456;7.244;2023-11-19T13:45:50;11.60;99.90
48998;DHT22;34807;51.456;7.244;2023-11-19T13:48:16;11.60;99.90
48998;DHT22;34807;51.456;7.244;2023-11-19T13:50:42;11.60;99.90
48998;DHT22;34807;51.456;7.244;2023-11-19T13:53:07;11.60;99.90
48998;DHT22;34807;51.456;7.244;2023-11-19T13:55:33;11.60;99.90
48998;DHT22;34807;51.456;7.244;2023-11-19T13:57:58;11.60;99.90
48998;DHT22;34807;51.456;7.244;2023-11-19T14:00:24;11.70;99.90
48998;DHT22;34807;51.456;7.244;2023-11-19T14:02:49;11.60;99.90
48998;DHT22;34807;51.456;7.244;2023-11-19T14:05:15;11.60;99.90
48998;DHT22;34807;51.456;7.244;2023-11-19T14:07:43;11.70;99.90
48998;DHT22;34807;51.456;7.244;2023-11-19T14:10:09;11.60;99.90
48998;DHT22;34807;51.456;7.244;2023-11-19T14:12:39;11.60;99.90
48998;DHT22;34807;51.456;7.244;2023-11-19T14:15:05;11.60;99.90
48998;DHT22;34807;51.456;7.244;2023-11-19T14:17:35;11.60;99.90
48998;DHT22;34807;51.456;7.244;2023-11-19T14:20:00;11.50;99.90
48998;DHT22;34807;51.456;7.244;2023-11-19T14:22:26;11.50;99.90
48998;DHT22;34807;51.456;7.244;2023-11-19T14:24:52;11.50;99.90
48998;DHT22;34807;51.456;7.244;2023-11-19T14:27:17;11.50;99.90
48998;DHT22;34807;51.456;7.244;2023-11-19T14:29:43;11.50;99.90
48998;DHT22;34807;51.456;7.244;2023-11-19T14:32:10;11.50;99.90
48998;DHT22;34807;51.456;7.244;2023-11-19T14:34:36;11.50;99.90
48998;DHT22;34807;51.456;7.244;2023-11-19T14:37:01;11.50;99.90
48998;DHT22;34807;51.456;7.244;2023-11-19T14:39:27;11.50;99.90
48998;DHT22;34807;51.456;7.244;2023-11-19T14:41:54;11.40;99.90
48998;DHT22;34807;51.456;7.244;2023-11-19T14:44:23;11.50;99.90
48998;DHT22;34807;51.456;7.244;2023-11-19T14:46:49;11.50;99.90
48998;DHT22;34807;51.456;7.244;2023-11-19T14:49:15;11.40;99.90
48998;DHT22;34807;51.456;7.244;2023-11-19T14:51:40;11.40;99.90
48998;DHT22;34807;51.456;7.244;2023-11-19T14:54:06;11.40;99.90
48998;DHT22;34807;51.456;7.244;2023-11-19T14:56:31;11.40;99.90
48998;DHT22;34807;51.456;7.244;2023-11-19T14:58:57;11.40;99.90
48998;DHT22;34807;51.456;7.244;2023-11-19T15:01:24;11.30;99.90
48998;DHT22;34807;51.456;7.244;2023-11-19T15:03:49;11.40;99.90
48998;DHT22;34807;51.456;7.244;2023-11-19T15:06:15;11.30;99.90
48998;DHT22;34807;51.456;7.244;2023-11-19T15:08:41;11.30;99.90
48998;DHT22;34807;51.456;7.244;2023-11-19T15:11:07;11.30;99.90
48998;DHT22;34807;51.456;7.244;2023-11-19T15:13:34;11.30;99.90
48998;DHT22;34807;51.456;7.244;2023-11-19T15:16:01;11.20;99.90
48998;DHT22;34807;51.456;7.244;2023-11-19T15:18:27;11.20;99.90
48998;DHT22;34807;51.456;7.244;2023-11-19T15:20:53;11.20;99.90
48998;DHT22;34807;51.456;7.244;2023-11-19T15:23:18;11.20;99.90
48998;DHT22;34807;51.456;7.244;2023-11-19T15:25:44;11.20;99.90
48998;DHT22;34807;51.456;7.244;2023-11-19T15:28:10;11.20;99.90
48998;DHT22;34807;51.456;7.244;2023-11-19T15:30:36;11.10;99.90
48998;DHT22;34807;51.456;7.244;2023-11-19T15:33:01;11.10;99.90
48998;DHT22;34807;51.456;7.244;2023-11-19T15:35:27;11.10;99.90
48998;DHT22;34807;51.456;7.244;2023-11-19T15:37:52;11.10;99.90
48998;DHT22;34807;51.456;7.244;2023-11-19T15:40:18;11.10;99.90
48998;DHT22;34807;51.456;7.244;2023-11-19T15:42:43;11.10;99.90
48998;DHT22;34807;51.456;7.244;2023-11-19T15:45:10;11.10;99.90
48998;DHT22;34807;51.456;7.244;2023-11-19T15:47:37;11.10;99.90
48998;DHT22;34807;51.456;7.244;2023-11-19T15:50:03;11.00;99.90
48998;DHT22;34807;51.456;7.244;2023-11-19T15:52:29;11.00;99.90